sensor_id;sensor_type;location;lat;lon;timestamp;P1;durP1;ratioP1;P2;durP2;ratioP2
4903;SDS011;2467;48.142;11.616;2023-08-21T00:00:10;12.95;;;12.00;;
4903;SDS011;2467;48.142;11.616;2023-08-21T00:00:44;11.40;;;10.50;;
4903;SDS011;2467;48.142;11.616;2023-08-21T00:01:16;13.20;;;12.23;;
4903;SDS011;2467;48.142;11.616;2023-08-21T00:01:48;11.88;;;10.90;;
4903;SDS011;2467;48.142;11.616;2023-08-21T00:02:20;12.95;;;11.80;;
4903;SDS011;2467;48.142;11.616;2023-08-21T00:02:54;12.90;;;11.82;;
4903;SDS011;2467;48.142;11.616;2023-08-21T00:03:26;12.82;;;11.93;;
4903;SDS011;2467;48.142;11.616;2023-08-21T00:03:58;12.40;;;11.50;;
4903;SDS011;2467;48.142;11.616;2023-08-21T00:04:30;12.65;;;11.60;;
4903;SDS011;2467;48.142;11.616;2023-08-21T00:05:03;12.00;;;11.10;;
4903;SDS011;2467;48.142;11.616;2023-08-21T00:05:35;12.05;;;11.05;;
4903;SDS011;2467;48.142;11.616;2023-08-21T00:06:07;13.65;;;12.65;;
4903;SDS011;2467;48.142;11.616;2023-08-21T00:06:39;13.02;;;12.10;;
4903;SDS011;2467;48.142;11.616;2023-08-21T00:07:12;12.90;;;11.88;;
4903;SDS011;2467;48.142;11.616;2023-08-21T00:07:44;13.02;;;12.02;;
4903;SDS011;2467;48.142;11.616;2023-08-21T00:08:17;12.70;;;11.60;;
4903;SDS011;2467;48.142;11.616;2023-08-21T00:08:49;12.80;;;11.90;;
4903;SDS011;2467;48.142;11.616;2023-08-21T00:09:22;12.07;;;11.05;;
4903;SDS011;2467;48.142;11.616;2023-08-21T00:09:54;11.90;;;11.00;;
4903;SDS011;2467;48.142;11.616;2023-08-21T00:10:26;12.52;;;11.23;;
4903;SDS011;2467;48.142;11.616;2023-08-21T00:10:59;11.48;;;10.57;;
4903;SDS011;2467;48.142;11.616;2023-08-21T00:11:31;12.57;;;11.60;;
4903;SDS011;2467;48.142;11.616;2023-08-21T00:12:03;12.10;;;11.20;;
4903;SDS011;2467;48.142;11.616;2023-08-21T00:12:35;12.20;;;11.40;;
4903;SDS011;2467;48.142;11.616;2023-08-21T00:13:09;12.75;;;11.75;;
4903;SDS011;2467;48.142;11.616;2023-08-21T00:13:40;12.98;;;11.98;;
4903;SDS011;2467;48.142;11.616;2023-08-21T00:14:15;11.85;;;10.75;;
4903;SDS011;2467;48.142;11.616;2023-08-21T00:14:47;12.30;;;11.45;;
4903;SDS011;2467;48.142;11.616;2023-08-21T00:15:20;11.63;;;10.73;;
4903;SDS011;2467;48.142;11.616;2023-08-21T00:15:52;12.82;;;11.73;;
4903;SDS011;2467;48.142;11.616;2023-08-21T00:16:25;13.65;;;12.45;;
4903;SDS011;2467;48.142;11.616;2023-08-21T00:16:59;11.43;;;10.48;;
4903;SDS011;2467;48.142;11.616;2023-08-21T00:17:32;12.70;;;11.68;;
4903;SDS011;2467;48.142;11.616;2023-08-21T00:18:06;11.77;;;10.93;;
4903;SDS011;2467;48.142;11.616;2023-08-21T00:18:39;10.68;;;9.95;;
4903;SDS011;2467;48.142;11.616;2023-08-21T00:19:11;11.43;;;10.32;;
4903;SDS011;2467;48.142;11.616;2023-08-21T00:19:43;13.00;;;12.00;;
4903;SDS011;2467;48.142;11.616;2023-08-21T00:20:16;13.32;;;12.25;;
4903;SDS011;2467;48.142;11.616;2023-08-21T00:20:48;12.75;;;11.48;;
4903;SDS011;2467;48.142;11.616;2023-08-21T00:21:20;12.00;;;11.00;;
4903;SDS011;2467;48.142;11.616;2023-08-21T00:21:52;12.45;;;11.55;;
4903;SDS011;2467;48.142;11.616;2023-08-21T00:22:25;11.65;;;10.75;;
4903;SDS011;2467;48.142;11.616;2023-08-21T00:22:57;11.80;;;10.88;;
4903;SDS011;2467;48.142;11.616;2023-08-21T00:23:28;12.65;;;11.65;;
4903;SDS011;2467;48.142;11.616;2023-08-21T00:24:00;12.15;;;11.25;;
4903;SDS011;2467;48.142;11.616;2023-08-21T00:24:33;11.57;;;10.70;;
4903;SDS011;2467;48.142;11.616;2023-08-21T00:25:05;11.60;;;10.60;;
4903;SDS011;2467;48.142;11.616;2023-08-21T00:25:37;11.60;;;10.60;;
4903;SDS011;2467;48.142;11.616;2023-08-21T00:26:10;12.13;;;10.93;;
4903;SDS011;2467;48.142;11.616;2023-08-21T00:26:42;11.23;;;10.32;;
4903;SDS011;2467;48.142;11.616;2023-08-21T00:27:14;11.05;;;10.18;;
4903;SDS011;2467;48.142;11.616;2023-08-21T00:27:47;12.48;;;11.50;;
4903;SDS011;2467;48.142;11.616;2023-08-21T00:28:19;12.13;;;11.23;;
4903;SDS011;2467;48.142;11.616;2023-08-21T00:28:50;11.98;;;10.80;;
4903;SDS011;2467;48.142;11.616;2023-08-21T00:29:22;11.77;;;10.88;;
4903;SDS011;2467;48.142;11.616;2023-08-21T00:29:55;11.10;;;10.25;;
4903;SDS011;2467;48.142;11.616;2023-08-21T00:30:28;11.57;;;10.65;;
4903;SDS011;2467;48.142;11.616;2023-08-21T00:31:01;11.73;;;10.93;;
4903;SDS011;2467;48.142;11.616;2023-08-21T00:31:33;11.77;;;10.85;;
4903;SDS011;2467;48.142;11.616;2023-08-21T00:32:06;11.70;;;10.52;;
4903;SDS011;2467;48.142;11.616;2023-08-21T00:32:38;11.55;;;10.70;;
4903;SDS011;2467;48.142;11.616;2023-08-21T00:33:11;12.77;;;11.63;;
4903;SDS011;2467;48.142;11.616;2023-08-21T00:33:44;12.48;;;11.48;;
4903;SDS011;2467;48.142;11.616;2023-08-21T00:34:16;11.55;;;10.75;;
4903;SDS011;2467;48.142;11.616;2023-08-21T00:34:48;11.75;;;10.75;;
4903;SDS011;2467;48.142;11.616;2023-08-21T00:35:20;11.55;;;10.55;;
4903;SDS011;2467;48.142;11.616;2023-08-21T00:35:53;11.98;;;11.07;;
4903;SDS011;2467;48.142;11.616;2023-08-21T00:36:25;11.40;;;10.50;;
4903;SDS011;2467;48.142;11.616;2023-08-21T00:36:57;12.25;;;11.25;;
4903;SDS011;2467;48.142;11.616;2023-08-21T00:37:29;11.73;;;10.68;;
4903;SDS011;2467;48.142;11.616;2023-08-21T00:38:01;12.27;;;11.15;;
4903;SDS011;2467;48.142;11.616;2023-08-21T00:38:34;11.38;;;10.57;;
4903;SDS011;2467;48.142;11.616;2023-08-21T00:39:06;11.32;;;10.50;;
4903;SDS011;2467;48.142;11.616;2023-08-21T00:39:39;11.30;;;10.50;;
4903;SDS011;2467;48.142;11.616;2023-08-21T00:40:11;12.15;;;11.15;;
4903;SDS011;2467;48.142;11.616;2023-08-21T00:40:43;12.63;;;11.73;;
4903;SDS011;2467;48.142;11.616;2023-08-21T00:41:15;11.80;;;11.00;;
4903;SDS011;2467;48.142;11.616;2023-08-21T00:41:48;11.57;;;10.55;;
4903;SDS011;2467;48.142;11.616;2023-08-21T00:42:20;12.00;;;11.10;;
4903;SDS011;2467;48.142;11.616;2023-08-21T00:42:51;11.48;;;10.68;;
4903;SDS011;2467;48.142;11.616;2023-08-21T00:43:24;10.70;;;9.90;;
4903;SDS011;2467;48.142;11.616;2023-08-21T00:43:56;11.35;;;10.45;;
4903;SDS011;2467;48.142;11.616;2023-08-21T00:44:28;11.13;;;10.32;;
4903;SDS011;2467;48.142;11.616;2023-08-21T00:45:00;12.15;;;11.15;;
4903;SDS011;2467;48.142;11.616;2023-08-21T00:45:34;11.65;;;10.80;;
4903;SDS011;2467;48.142;11.616;2023-08-21T00:46:06;11.63;;;10.82;;
4903;SDS011;2467;48.142;11.616;2023-08-21T00:46:38;11.80;;;10.80;;
4903;SDS011;2467;48.142;11.616;2023-08-21T00:47:11;12.10;;;11.05;;
4903;SDS011;2467;48.142;11.616;2023-08-21T00:47:43;11.68;;;10.80;;
4903;SDS011;2467;48.142;11.616;2023-08-21T00:48:17;11.05;;;10.05;;
4903;SDS011;2467;48.142;11.616;2023-08-21T00:48:50;11.55;;;10.60;;
4903;SDS011;2467;48.142;11.616;2023-08-21T00:49:23;11.93;;;11.00;;
4903;SDS011;2467;48.142;11.616;2023-08-21T00:49:55;11.15;;;10.35;;
4903;SDS011;2467;48.142;11.616;2023-08-21T00:50:27;10.52;;;9.68;;
4903;SDS011;2467;48.142;11.616;2023-08-21T00:50:59;12.40;;;11.50;;
4903;SDS011;2467;48.142;11.616;2023-08-21T00:51:32;11.50;;;10.65;;
4903;SDS011;2467;48.142;11.616;2023-08-21T00:52:04;11.57;;;10.75;;
4903;SDS011;2467;48.142;11.616;2023-08-21T00:52:38;11.77;;;10.80;;
4903;SDS011;2467;48.142;11.616;2023-08-21T00:53:11;11.73;;;10.73;;
4903;SDS011;2467;48.142;11.616;2023-08-21T00:53:44;10.85;;;9.95;;
4903;SDS011;2467;48.142;11.616;2023-08-21T00:54:16;11.40;;;10.60;;
4903;SDS011;2467;48.142;11.616;2023-08-21T00:54:50;11.73;;;10.73;;
4903;SDS011;2467;48.142;11.616;2023-08-21T00:55:23;10.77;;;10.07;;
4903;SDS011;2467;48.142;11.616;2023-08-21T00:55:55;11.57;;;10.77;;
4903;SDS011;2467;48.142;11.616;2023-08-21T00:56:27;12.50;;;11.50;;
4903;SDS011;2467;48.142;11.616;2023-08-21T00:56:59;10.05;;;9.30;;
4903;SDS011;2467;48.142;11.616;2023-08-21T00:57:33;11.23;;;10.43;;
4903;SDS011;2467;48.142;11.616;2023-08-21T00:58:07;10.95;;;10.23;;
4903;SDS011;2467;48.142;11.616;2023-08-21T00:58:41;11.48;;;10.68;;
4903;SDS011;2467;48.142;11.616;2023-08-21T00:59:14;11.43;;;10.63;;
4903;SDS011;2467;48.142;11.616;2023-08-21T00:59:47;11.45;;;10.55;;
4903;SDS011;2467;48.142;11.616;2023-08-21T01:00:19;11.48;;;10.50;;
4903;SDS011;2467;48.142;11.616;2023-08-21T01:00:51;10.85;;;9.95;;
4903;SDS011;2467;48.142;11.616;2023-08-21T01:01:24;11.15;;;10.32;;
4903;SDS011;2467;48.142;11.616;2023-08-21T01:01:57;12.45;;;11.55;;
4903;SDS011;2467;48.142;11.616;2023-08-21T01:02:29;12.23;;;11.23;;
4903;SDS011;2467;48.142;11.616;2023-08-21T01:03:01;12.30;;;11.30;;
4903;SDS011;2467;48.142;11.616;2023-08-21T01:03:35;10.93;;;10.15;;
4903;SDS011;2467;48.142;11.616;2023-08-21T01:04:08;10.80;;;10.10;;
4903;SDS011;2467;48.142;11.616;2023-08-21T01:04:40;12.73;;;11.80;;
4903;SDS011;2467;48.142;11.616;2023-08-21T01:05:13;12.02;;;11.02;;
4903;SDS011;2467;48.142;11.616;2023-08-21T01:05:45;10.48;;;9.80;;
4903;SDS011;2467;48.142;11.616;2023-08-21T01:06:18;11.23;;;10.43;;
4903;SDS011;2467;48.142;11.616;2023-08-21T01:06:50;11.48;;;10.68;;
4903;SDS011;2467;48.142;11.616;2023-08-21T01:07:23;11.73;;;10.70;;
4903;SDS011;2467;48.142;11.616;2023-08-21T01:07:56;10.98;;;10.15;;
4903;SDS011;2467;48.142;11.616;2023-08-21T01:08:35;12.15;;;11.27;;
4903;SDS011;2467;48.142;11.616;2023-08-21T01:09:17;11.27;;;10.18;;
4903;SDS011;2467;48.142;11.616;2023-08-21T01:09:58;10.88;;;10.07;;
4903;SDS011;2467;48.142;11.616;2023-08-21T01:10:39;13.18;;;12.07;;
4903;SDS011;2467;48.142;11.616;2023-08-21T01:11:18;11.32;;;10.52;;
4903;SDS011;2467;48.142;11.616;2023-08-21T01:11:54;10.10;;;9.40;;
4903;SDS011;2467;48.142;11.616;2023-08-21T01:12:34;12.10;;;11.00;;
4903;SDS011;2467;48.142;11.616;2023-08-21T01:13:12;11.95;;;11.05;;
4903;SDS011;2467;48.142;11.616;2023-08-21T01:13:54;11.55;;;10.75;;
4903;SDS011;2467;48.142;11.616;2023-08-21T01:14:34;11.20;;;10.20;;
4903;SDS011;2467;48.142;11.616;2023-08-21T01:15:12;11.30;;;10.50;;
4903;SDS011;2467;48.142;11.616;2023-08-21T01:15:45;12.35;;;11.45;;
4903;SDS011;2467;48.142;11.616;2023-08-21T01:16:20;12.25;;;11.45;;
4903;SDS011;2467;48.142;11.616;2023-08-21T01:16:53;11.73;;;10.93;;
4903;SDS011;2467;48.142;11.616;2023-08-21T01:17:28;12.05;;;11.15;;
4903;SDS011;2467;48.142;11.616;2023-08-21T01:18:02;12.02;;;11.05;;
4903;SDS011;2467;48.142;11.616;2023-08-21T01:18:36;11.88;;;11.05;;
4903;SDS011;2467;48.142;11.616;2023-08-21T01:19:11;11.45;;;10.55;;
4903;SDS011;2467;48.142;11.616;2023-08-21T01:19:54;11.60;;;10.80;;
4903;SDS011;2467;48.142;11.616;2023-08-21T01:20:27;11.75;;;10.75;;
4903;SDS011;2467;48.142;11.616;2023-08-21T01:21:01;11.35;;;10.55;;
4903;SDS011;2467;48.142;11.616;2023-08-21T01:21:34;11.63;;;10.50;;
4903;SDS011;2467;48.142;11.616;2023-08-21T01:22:07;12.07;;;11.07;;
4903;SDS011;2467;48.142;11.616;2023-08-21T01:22:40;11.30;;;10.50;;
4903;SDS011;2467;48.142;11.616;2023-08-21T01:23:29;11.38;;;10.57;;
4903;SDS011;2467;48.142;11.616;2023-08-21T01:24:04;11.98;;;10.95;;
4903;SDS011;2467;48.142;11.616;2023-08-21T01:24:37;11.43;;;10.40;;
4903;SDS011;2467;48.142;11.616;2023-08-21T01:25:09;10.73;;;9.85;;
4903;SDS011;2467;48.142;11.616;2023-08-21T01:25:41;11.60;;;10.75;;
4903;SDS011;2467;48.142;11.616;2023-08-21T01:26:14;10.05;;;9.13;;
4903;SDS011;2467;48.142;11.616;2023-08-21T01:26:47;11.35;;;10.55;;
4903;SDS011;2467;48.142;11.616;2023-08-21T01:27:19;11.50;;;10.60;;
4903;SDS011;2467;48.142;11.616;2023-08-21T01:27:52;12.00;;;11.10;;
4903;SDS011;2467;48.142;11.616;2023-08-21T01:28:24;10.52;;;9.50;;
4903;SDS011;2467;48.142;11.616;2023-08-21T01:28:57;11.43;;;10.02;;
4903;SDS011;2467;48.142;11.616;2023-08-21T01:29:29;10.52;;;9.65;;
4903;SDS011;2467;48.142;11.616;2023-08-21T01:30:02;9.60;;;9.00;;
4903;SDS011;2467;48.142;11.616;2023-08-21T01:30:35;10.30;;;9.50;;
4903;SDS011;2467;48.142;11.616;2023-08-21T01:31:10;9.98;;;9.27;;
4903;SDS011;2467;48.142;11.616;2023-08-21T01:31:50;11.15;;;10.25;;
4903;SDS011;2467;48.142;11.616;2023-08-21T01:32:29;10.23;;;9.50;;
4903;SDS011;2467;48.142;11.616;2023-08-21T01:33:08;10.30;;;9.55;;
4903;SDS011;2467;48.142;11.616;2023-08-21T01:33:45;10.60;;;9.70;;
4903;SDS011;2467;48.142;11.616;2023-08-21T01:34:19;10.50;;;9.70;;
4903;SDS011;2467;48.142;11.616;2023-08-21T01:34:52;10.85;;;9.95;;
4903;SDS011;2467;48.142;11.616;2023-08-21T01:35:27;11.20;;;10.40;;
4903;SDS011;2467;48.142;11.616;2023-08-21T01:36:02;10.50;;;9.63;;
4903;SDS011;2467;48.142;11.616;2023-08-21T01:36:36;10.68;;;9.77;;
4903;SDS011;2467;48.142;11.616;2023-08-21T01:37:08;10.45;;;9.50;;
4903;SDS011;2467;48.142;11.616;2023-08-21T01:37:41;10.02;;;9.18;;
4903;SDS011;2467;48.142;11.616;2023-08-21T01:38:15;10.73;;;9.45;;
4903;SDS011;2467;48.142;11.616;2023-08-21T01:38:49;10.05;;;9.18;;
4903;SDS011;2467;48.142;11.616;2023-08-21T01:39:21;10.77;;;10.00;;
4903;SDS011;2467;48.142;11.616;2023-08-21T01:39:57;9.68;;;9.00;;
4903;SDS011;2467;48.142;11.616;2023-08-21T01:40:29;8.98;;;8.27;;
4903;SDS011;2467;48.142;11.616;2023-08-21T01:41:01;11.60;;;10.70;;
4903;SDS011;2467;48.142;11.616;2023-08-21T01:41:33;9.95;;;9.15;;
4903;SDS011;2467;48.142;11.616;2023-08-21T01:42:06;9.65;;;8.90;;
4903;SDS011;2467;48.142;11.616;2023-08-21T01:42:38;10.48;;;9.68;;
4903;SDS011;2467;48.142;11.616;2023-08-21T01:43:10;10.85;;;9.88;;
4903;SDS011;2467;48.142;11.616;2023-08-21T01:43:42;9.70;;;8.90;;
4903;SDS011;2467;48.142;11.616;2023-08-21T01:44:15;9.82;;;9.02;;
4903;SDS011;2467;48.142;11.616;2023-08-21T01:44:46;9.70;;;9.00;;
4903;SDS011;2467;48.142;11.616;2023-08-21T01:45:18;9.80;;;9.10;;
4903;SDS011;2467;48.142;11.616;2023-08-21T01:45:51;10.40;;;9.65;;
4903;SDS011;2467;48.142;11.616;2023-08-21T01:46:24;9.70;;;8.90;;
4903;SDS011;2467;48.142;11.616;2023-08-21T01:46:55;9.25;;;8.55;;
4903;SDS011;2467;48.142;11.616;2023-08-21T01:47:27;9.60;;;8.77;;
4903;SDS011;2467;48.142;11.616;2023-08-21T01:48:00;9.63;;;8.73;;
4903;SDS011;2467;48.142;11.616;2023-08-21T01:48:32;9.95;;;9.15;;
4903;SDS011;2467;48.142;11.616;2023-08-21T01:49:04;9.77;;;9.07;;
4903;SDS011;2467;48.142;11.616;2023-08-21T01:49:36;8.48;;;7.95;;
4903;SDS011;2467;48.142;11.616;2023-08-21T01:50:09;10.07;;;9.35;;
4903;SDS011;2467;48.142;11.616;2023-08-21T01:50:41;10.10;;;9.27;;
4903;SDS011;2467;48.142;11.616;2023-08-21T01:51:13;8.98;;;8.32;;
4903;SDS011;2467;48.142;11.616;2023-08-21T01:51:45;9.82;;;8.70;;
4903;SDS011;2467;48.142;11.616;2023-08-21T01:52:18;9.00;;;8.00;;
4903;SDS011;2467;48.142;11.616;2023-08-21T01:52:50;8.20;;;7.70;;
4903;SDS011;2467;48.142;11.616;2023-08-21T01:53:22;9.65;;;8.75;;
4903;SDS011;2467;48.142;11.616;2023-08-21T01:53:56;9.60;;;8.80;;
4903;SDS011;2467;48.142;11.616;2023-08-21T01:54:28;8.65;;;8.05;;
4903;SDS011;2467;48.142;11.616;2023-08-21T01:55:00;9.68;;;8.85;;
4903;SDS011;2467;48.142;11.616;2023-08-21T01:55:32;9.15;;;8.55;;
4903;SDS011;2467;48.142;11.616;2023-08-21T01:56:05;10.00;;;9.25;;
4903;SDS011;2467;48.142;11.616;2023-08-21T01:56:36;9.38;;;8.65;;
4903;SDS011;2467;48.142;11.616;2023-08-21T01:57:08;9.63;;;8.70;;
4903;SDS011;2467;48.142;11.616;2023-08-21T01:57:40;9.23;;;8.52;;
4903;SDS011;2467;48.142;11.616;2023-08-21T01:58:14;9.13;;;8.52;;
4903;SDS011;2467;48.142;11.616;2023-08-21T01:58:46;8.85;;;8.15;;
4903;SDS011;2467;48.142;11.616;2023-08-21T01:59:19;12.10;;;8.15;;
4903;SDS011;2467;48.142;11.616;2023-08-21T01:59:51;8.98;;;8.27;;
4903;SDS011;2467;48.142;11.616;2023-08-21T02:00:24;8.57;;;7.80;;
4903;SDS011;2467;48.142;11.616;2023-08-21T02:00:56;8.52;;;7.88;;
4903;SDS011;2467;48.142;11.616;2023-08-21T02:01:28;9.40;;;8.60;;
4903;SDS011;2467;48.142;11.616;2023-08-21T02:02:00;8.43;;;7.85;;
4903;SDS011;2467;48.142;11.616;2023-08-21T02:02:33;8.70;;;8.00;;
4903;SDS011;2467;48.142;11.616;2023-08-21T02:03:05;10.05;;;9.25;;
4903;SDS011;2467;48.142;11.616;2023-08-21T02:03:37;10.30;;;9.50;;
4903;SDS011;2467;48.142;11.616;2023-08-21T02:04:09;9.65;;;9.05;;
4903;SDS011;2467;48.142;11.616;2023-08-21T02:04:42;11.77;;;10.70;;
4903;SDS011;2467;48.142;11.616;2023-08-21T02:05:13;10.05;;;9.15;;
4903;SDS011;2467;48.142;11.616;2023-08-21T02:05:46;8.55;;;7.95;;
4903;SDS011;2467;48.142;11.616;2023-08-21T02:06:17;8.93;;;8.32;;
4903;SDS011;2467;48.142;11.616;2023-08-21T02:06:50;9.10;;;8.30;;
4903;SDS011;2467;48.142;11.616;2023-08-21T02:07:22;8.93;;;8.23;;
4903;SDS011;2467;48.142;11.616;2023-08-21T02:07:54;9.23;;;8.35;;
4903;SDS011;2467;48.142;11.616;2023-08-21T02:08:30;9.68;;;8.07;;
4903;SDS011;2467;48.142;11.616;2023-08-21T02:09:04;9.40;;;8.80;;
4903;SDS011;2467;48.142;11.616;2023-08-21T02:09:36;10.95;;;9.95;;
4903;SDS011;2467;48.142;11.616;2023-08-21T02:10:09;9.93;;;8.98;;
4903;SDS011;2467;48.142;11.616;2023-08-21T02:10:50;11.07;;;8.80;;
4903;SDS011;2467;48.142;11.616;2023-08-21T02:11:23;10.68;;;9.60;;
4903;SDS011;2467;48.142;11.616;2023-08-21T02:11:55;8.93;;;8.23;;
4903;SDS011;2467;48.142;11.616;2023-08-21T02:12:27;10.18;;;9.23;;
4903;SDS011;2467;48.142;11.616;2023-08-21T02:12:59;9.05;;;8.35;;
4903;SDS011;2467;48.142;11.616;2023-08-21T02:13:31;9.05;;;8.38;;
4903;SDS011;2467;48.142;11.616;2023-08-21T02:14:04;8.45;;;7.95;;
4903;SDS011;2467;48.142;11.616;2023-08-21T02:14:36;9.48;;;8.88;;
4903;SDS011;2467;48.142;11.616;2023-08-21T02:15:09;9.70;;;8.57;;
4903;SDS011;2467;48.142;11.616;2023-08-21T02:15:41;10.27;;;9.40;;
4903;SDS011;2467;48.142;11.616;2023-08-21T02:16:14;10.05;;;9.15;;
4903;SDS011;2467;48.142;11.616;2023-08-21T02:16:46;9.75;;;8.93;;
4903;SDS011;2467;48.142;11.616;2023-08-21T02:17:18;10.05;;;9.25;;
4903;SDS011;2467;48.142;11.616;2023-08-21T02:17:50;8.85;;;8.13;;
4903;SDS011;2467;48.142;11.616;2023-08-21T02:18:22;9.30;;;8.60;;
4903;SDS011;2467;48.142;11.616;2023-08-21T02:18:54;9.60;;;8.90;;
4903;SDS011;2467;48.142;11.616;2023-08-21T02:19:26;9.20;;;8.40;;
4903;SDS011;2467;48.142;11.616;2023-08-21T02:19:59;9.32;;;8.63;;
4903;SDS011;2467;48.142;11.616;2023-08-21T02:20:31;10.27;;;9.48;;
4903;SDS011;2467;48.142;11.616;2023-08-21T02:21:03;9.63;;;8.65;;
4903;SDS011;2467;48.142;11.616;2023-08-21T02:21:36;9.93;;;9.10;;
4903;SDS011;2467;48.142;11.616;2023-08-21T02:22:08;9.80;;;9.10;;
4903;SDS011;2467;48.142;11.616;2023-08-21T02:22:39;10.00;;;9.20;;
4903;SDS011;2467;48.142;11.616;2023-08-21T02:23:11;10.25;;;9.55;;
4903;SDS011;2467;48.142;11.616;2023-08-21T02:23:44;9.25;;;8.65;;
4903;SDS011;2467;48.142;11.616;2023-08-21T02:24:18;9.60;;;8.90;;
4903;SDS011;2467;48.142;11.616;2023-08-21T02:24:49;9.85;;;9.00;;
4903;SDS011;2467;48.142;11.616;2023-08-21T02:25:21;10.05;;;9.18;;
4903;SDS011;2467;48.142;11.616;2023-08-21T02:25:54;9.30;;;8.70;;
4903;SDS011;2467;48.142;11.616;2023-08-21T02:26:26;9.13;;;8.50;;
4903;SDS011;2467;48.142;11.616;2023-08-21T02:26:58;9.60;;;8.90;;
4903;SDS011;2467;48.142;11.616;2023-08-21T02:27:30;10.00;;;9.20;;
4903;SDS011;2467;48.142;11.616;2023-08-21T02:28:03;10.07;;;9.38;;
4903;SDS011;2467;48.142;11.616;2023-08-21T02:28:35;9.45;;;8.60;;
4903;SDS011;2467;48.142;11.616;2023-08-21T02:29:07;10.30;;;9.55;;
4903;SDS011;2467;48.142;11.616;2023-08-21T02:29:39;9.05;;;8.30;;
4903;SDS011;2467;48.142;11.616;2023-08-21T02:30:12;10.68;;;9.68;;
4903;SDS011;2467;48.142;11.616;2023-08-21T02:30:44;9.23;;;8.52;;
4903;SDS011;2467;48.142;11.616;2023-08-21T02:31:16;9.55;;;8.95;;
4903;SDS011;2467;48.142;11.616;2023-08-21T02:31:50;10.70;;;9.65;;
4903;SDS011;2467;48.142;11.616;2023-08-21T02:32:21;9.82;;;9.07;;
4903;SDS011;2467;48.142;11.616;2023-08-21T02:32:53;9.50;;;8.70;;
4903;SDS011;2467;48.142;11.616;2023-08-21T02:33:25;9.63;;;8.82;;
4903;SDS011;2467;48.142;11.616;2023-08-21T02:33:58;10.10;;;9.40;;
4903;SDS011;2467;48.142;11.616;2023-08-21T02:34:30;11.23;;;9.27;;
4903;SDS011;2467;48.142;11.616;2023-08-21T02:35:02;9.30;;;8.50;;
4903;SDS011;2467;48.142;11.616;2023-08-21T02:35:34;10.20;;;9.40;;
4903;SDS011;2467;48.142;11.616;2023-08-21T02:36:08;9.13;;;8.52;;
4903;SDS011;2467;48.142;11.616;2023-08-21T02:36:39;10.13;;;9.43;;
4903;SDS011;2467;48.142;11.616;2023-08-21T02:37:11;10.20;;;9.45;;
4903;SDS011;2467;48.142;11.616;2023-08-21T02:37:44;10.10;;;9.40;;
4903;SDS011;2467;48.142;11.616;2023-08-21T02:38:16;9.13;;;8.43;;
4903;SDS011;2467;48.142;11.616;2023-08-21T02:38:49;9.00;;;8.40;;
4903;SDS011;2467;48.142;11.616;2023-08-21T02:39:22;9.68;;;8.90;;
4903;SDS011;2467;48.142;11.616;2023-08-21T02:39:55;10.40;;;9.48;;
4903;SDS011;2467;48.142;11.616;2023-08-21T02:40:27;10.98;;;10.02;;
4903;SDS011;2467;48.142;11.616;2023-08-21T02:40:59;10.35;;;9.55;;
4903;SDS011;2467;48.142;11.616;2023-08-21T02:41:31;10.35;;;9.55;;
4903;SDS011;2467;48.142;11.616;2023-08-21T02:42:03;9.35;;;8.57;;
4903;SDS011;2467;48.142;11.616;2023-08-21T02:42:35;11.63;;;9.60;;
4903;SDS011;2467;48.142;11.616;2023-08-21T02:43:08;10.32;;;9.52;;
4903;SDS011;2467;48.142;11.616;2023-08-21T02:43:40;9.98;;;8.55;;
4903;SDS011;2467;48.142;11.616;2023-08-21T02:44:12;9.95;;;9.05;;
4903;SDS011;2467;48.142;11.616;2023-08-21T02:44:44;9.88;;;8.88;;
4903;SDS011;2467;48.142;11.616;2023-08-21T02:45:16;10.00;;;9.30;;
4903;SDS011;2467;48.142;11.616;2023-08-21T02:45:50;10.55;;;9.65;;
4903;SDS011;2467;48.142;11.616;2023-08-21T02:46:23;10.38;;;9.60;;
4903;SDS011;2467;48.142;11.616;2023-08-21T02:46:55;9.80;;;9.02;;
4903;SDS011;2467;48.142;11.616;2023-08-21T02:47:27;9.77;;;9.05;;
4903;SDS011;2467;48.142;11.616;2023-08-21T02:47:59;12.15;;;10.55;;
4903;SDS011;2467;48.142;11.616;2023-08-21T02:48:31;10.43;;;9.45;;
4903;SDS011;2467;48.142;11.616;2023-08-21T02:49:03;8.95;;;8.20;;
4903;SDS011;2467;48.142;11.616;2023-08-21T02:49:36;8.65;;;7.90;;
4903;SDS011;2467;48.142;11.616;2023-08-21T02:50:08;9.63;;;8.77;;
4903;SDS011;2467;48.142;11.616;2023-08-21T02:50:41;9.48;;;8.77;;
4903;SDS011;2467;48.142;11.616;2023-08-21T02:51:14;9.35;;;8.63;;
4903;SDS011;2467;48.142;11.616;2023-08-21T02:51:46;9.43;;;8.50;;
4903;SDS011;2467;48.142;11.616;2023-08-21T02:52:17;9.32;;;8.52;;
4903;SDS011;2467;48.142;11.616;2023-08-21T02:52:49;9.45;;;8.75;;
4903;SDS011;2467;48.142;11.616;2023-08-21T02:53:22;9.52;;;8.85;;
4903;SDS011;2467;48.142;11.616;2023-08-21T02:53:54;10.00;;;9.30;;
4903;SDS011;2467;48.142;11.616;2023-08-21T02:54:28;9.95;;;9.15;;
4903;SDS011;2467;48.142;11.616;2023-08-21T02:54:59;10.40;;;9.50;;
4903;SDS011;2467;48.142;11.616;2023-08-21T02:55:32;9.90;;;9.10;;
4903;SDS011;2467;48.142;11.616;2023-08-21T02:56:04;9.95;;;9.15;;
4903;SDS011;2467;48.142;11.616;2023-08-21T02:56:36;9.55;;;8.75;;
4903;SDS011;2467;48.142;11.616;2023-08-21T02:57:08;10.95;;;10.02;;
4903;SDS011;2467;48.142;11.616;2023-08-21T02:57:41;10.35;;;9.35;;
4903;SDS011;2467;48.142;11.616;2023-08-21T02:58:13;10.18;;;9.38;;
4903;SDS011;2467;48.142;11.616;2023-08-21T02:58:45;8.70;;;8.10;;
4903;SDS011;2467;48.142;11.616;2023-08-21T02:59:18;10.27;;;9.38;;
4903;SDS011;2467;48.142;11.616;2023-08-21T02:59:50;10.73;;;9.80;;
4903;SDS011;2467;48.142;11.616;2023-08-21T03:00:22;9.50;;;8.70;;
4903;SDS011;2467;48.142;11.616;2023-08-21T03:00:54;9.48;;;8.75;;
4903;SDS011;2467;48.142;11.616;2023-08-21T03:01:27;9.65;;;8.77;;
4903;SDS011;2467;48.142;11.616;2023-08-21T03:01:58;8.85;;;8.15;;
4903;SDS011;2467;48.142;11.616;2023-08-21T03:02:30;9.02;;;8.35;;
4903;SDS011;2467;48.142;11.616;2023-08-21T03:03:04;10.48;;;9.65;;
4903;SDS011;2467;48.142;11.616;2023-08-21T03:03:36;9.57;;;8.77;;
4903;SDS011;2467;48.142;11.616;2023-08-21T03:04:08;9.70;;;8.98;;
4903;SDS011;2467;48.142;11.616;2023-08-21T03:04:40;9.30;;;8.60;;
4903;SDS011;2467;48.142;11.616;2023-08-21T03:05:13;9.32;;;8.63;;
4903;SDS011;2467;48.142;11.616;2023-08-21T03:05:45;9.48;;;8.68;;
4903;SDS011;2467;48.142;11.616;2023-08-21T03:06:17;10.63;;;9.73;;
4903;SDS011;2467;48.142;11.616;2023-08-21T03:06:49;9.05;;;8.40;;
4903;SDS011;2467;48.142;11.616;2023-08-21T03:07:22;8.70;;;8.20;;
4903;SDS011;2467;48.142;11.616;2023-08-21T03:07:53;9.48;;;8.88;;
4903;SDS011;2467;48.142;11.616;2023-08-21T03:08:25;10.07;;;9.20;;
4903;SDS011;2467;48.142;11.616;2023-08-21T03:08:58;8.85;;;8.07;;
4903;SDS011;2467;48.142;11.616;2023-08-21T03:09:31;9.85;;;9.02;;
4903;SDS011;2467;48.142;11.616;2023-08-21T03:10:04;9.20;;;8.48;;
4903;SDS011;2467;48.142;11.616;2023-08-21T03:10:36;9.88;;;9.10;;
4903;SDS011;2467;48.142;11.616;2023-08-21T03:11:09;8.77;;;8.07;;
4903;SDS011;2467;48.142;11.616;2023-08-21T03:11:41;10.18;;;9.20;;
4903;SDS011;2467;48.142;11.616;2023-08-21T03:12:13;9.90;;;9.10;;
4903;SDS011;2467;48.142;11.616;2023-08-21T03:12:45;9.60;;;8.90;;
4903;SDS011;2467;48.142;11.616;2023-08-21T03:13:18;9.93;;;9.13;;
4903;SDS011;2467;48.142;11.616;2023-08-21T03:13:50;10.27;;;9.57;;
4903;SDS011;2467;48.142;11.616;2023-08-21T03:14:24;10.45;;;9.57;;
4903;SDS011;2467;48.142;11.616;2023-08-21T03:14:57;9.38;;;8.77;;
4903;SDS011;2467;48.142;11.616;2023-08-21T03:15:30;11.77;;;9.55;;
4903;SDS011;2467;48.142;11.616;2023-08-21T03:16:02;9.65;;;8.85;;
4903;SDS011;2467;48.142;11.616;2023-08-21T03:16:34;10.02;;;9.23;;
4903;SDS011;2467;48.142;11.616;2023-08-21T03:17:07;9.63;;;8.95;;
4903;SDS011;2467;48.142;11.616;2023-08-21T03:17:39;11.40;;;8.98;;